sensor_id;sensor_type;location;lat;lon;timestamp;P1;durP1;ratioP1;P2;durP2;ratioP2
62006;SDS011;47963;53.008;6.754;2022-11-15T00:00:27;44.45;;;34.47;;
62006;SDS011;47963;53.008;6.754;2022-11-15T00:02:53;43.47;;;33.92;;
62006;SDS011;47963;53.008;6.754;2022-11-15T00:05:19;43.35;;;32.65;;
62006;SDS011;47963;53.008;6.754;2022-11-15T00:07:45;42.65;;;33.72;;
62006;SDS011;47963;53.008;6.754;2022-11-15T00:10:11;41.63;;;32.60;;
62006;SDS011;47963;53.008;6.754;2022-11-15T00:12:37;46.08;;;34.42;;
62006;SDS011;47963;53.008;6.754;2022-11-15T00:15:02;43.65;;;33.38;;
62006;SDS011;47963;53.008;6.754;2022-11-15T00:17:28;43.85;;;33.13;;
62006;SDS011;47963;53.008;6.754;2022-11-15T00:19:54;43.42;;;34.17;;
62006;SDS011;47963;53.008;6.754;2022-11-15T00:22:21;46.00;;;34.40;;
62006;SDS011;47963;53.008;6.754;2022-11-15T00:24:46;44.13;;;34.60;;
62006;SDS011;47963;53.008;6.754;2022-11-15T00:27:12;42.70;;;33.30;;
62006;SDS011;47963;53.008;6.754;2022-11-15T00:29:38;44.25;;;33.75;;
62006;SDS011;47963;53.008;6.754;2022-11-15T00:32:08;44.03;;;33.33;;
62006;SDS011;47963;53.008;6.754;2022-11-15T00:34:34;45.38;;;33.88;;
62006;SDS011;47963;53.008;6.754;2022-11-15T00:37:00;42.63;;;34.63;;
62006;SDS011;47963;53.008;6.754;2022-11-15T00:39:25;43.75;;;33.70;;
62006;SDS011;47963;53.008;6.754;2022-11-15T00:41:51;41.05;;;32.90;;
62006;SDS011;47963;53.008;6.754;2022-11-15T00:44:16;41.55;;;32.33;;
62006;SDS011;47963;53.008;6.754;2022-11-15T00:46:42;40.75;;;31.35;;
62006;SDS011;47963;53.008;6.754;2022-11-15T00:49:08;41.22;;;31.02;;
62006;SDS011;47963;53.008;6.754;2022-11-15T00:51:33;39.35;;;31.30;;
62006;SDS011;47963;53.008;6.754;2022-11-15T00:53:59;39.33;;;31.33;;
62006;SDS011;47963;53.008;6.754;2022-11-15T00:56:24;41.90;;;31.33;;
62006;SDS011;47963;53.008;6.754;2022-11-15T00:58:50;41.30;;;31.27;;
62006;SDS011;47963;53.008;6.754;2022-11-15T01:01:17;42.70;;;31.63;;
62006;SDS011;47963;53.008;6.754;2022-11-15T01:03:42;43.03;;;31.83;;
62006;SDS011;47963;53.008;6.754;2022-11-15T01:06:08;43.88;;;31.92;;
62006;SDS011;47963;53.008;6.754;2022-11-15T01:08:35;44.05;;;33.22;;
62006;SDS011;47963;53.008;6.754;2022-11-15T01:11:04;45.50;;;33.17;;
62006;SDS011;47963;53.008;6.754;2022-11-15T01:13:32;45.17;;;33.53;;
62006;SDS011;47963;53.008;6.754;2022-11-15T01:16:05;46.17;;;32.67;;
62006;SDS011;47963;53.008;6.754;2022-11-15T01:18:38;43.38;;;32.22;;
62006;SDS011;47963;53.008;6.754;2022-11-15T01:21:08;43.80;;;32.50;;
62006;SDS011;47963;53.008;6.754;2022-11-15T01:23:35;49.60;;;34.05;;
62006;SDS011;47963;53.008;6.754;2022-11-15T01:26:01;46.55;;;32.65;;
62006;SDS011;47963;53.008;6.754;2022-11-15T01:28:29;48.90;;;33.42;;
62006;SDS011;47963;53.008;6.754;2022-11-15T01:30:59;46.08;;;32.53;;
62006;SDS011;47963;53.008;6.754;2022-11-15T01:33:26;46.70;;;32.22;;
62006;SDS011;47963;53.008;6.754;2022-11-15T01:35:53;45.92;;;31.70;;
62006;SDS011;47963;53.008;6.754;2022-11-15T01:38:19;44.70;;;32.25;;
62006;SDS011;47963;53.008;6.754;2022-11-15T01:40:44;46.45;;;32.67;;
62006;SDS011;47963;53.008;6.754;2022-11-15T01:43:27;47.13;;;32.22;;
62006;SDS011;47963;53.008;6.754;2022-11-15T01:46:40;45.28;;;31.10;;
62006;SDS011;47963;53.008;6.754;2022-11-15T01:48:52;46.67;;;32.65;;
62006;SDS011;47963;53.008;6.754;2022-11-15T01:51:21;47.70;;;32.38;;
62006;SDS011;47963;53.008;6.754;2022-11-15T01:53:52;49.22;;;33.25;;
62006;SDS011;47963;53.008;6.754;2022-11-15T01:56:25;47.05;;;31.65;;
62006;SDS011;47963;53.008;6.754;2022-11-15T01:58:55;47.50;;;33.13;;
62006;SDS011;47963;53.008;6.754;2022-11-15T02:01:23;52.28;;;33.70;;
62006;SDS011;47963;53.008;6.754;2022-11-15T02:03:58;50.72;;;33.35;;
62006;SDS011;47963;53.008;6.754;2022-11-15T02:06:32;48.78;;;32.65;;
62006;SDS011;47963;53.008;6.754;2022-11-15T02:08:58;47.78;;;32.75;;
62006;SDS011;47963;53.008;6.754;2022-11-15T02:11:25;51.55;;;33.42;;
62006;SDS011;47963;53.008;6.754;2022-11-15T02:13:51;49.75;;;33.05;;
62006;SDS011;47963;53.008;6.754;2022-11-15T02:30:28;50.60;;;32.78;;
62006;SDS011;47963;53.008;6.754;2022-11-15T02:36:26;49.95;;;33.50;;
62006;SDS011;47963;53.008;6.754;2022-11-15T02:39:34;45.28;;;31.95;;
62006;SDS011;47963;53.008;6.754;2022-11-15T02:42:07;46.92;;;33.05;;
62006;SDS011;47963;53.008;6.754;2022-11-15T02:44:56;45.88;;;31.13;;
62006;SDS011;47963;53.008;6.754;2022-11-15T02:47:27;48.58;;;31.90;;
62006;SDS011;47963;53.008;6.754;2022-11-15T02:49:57;50.55;;;32.92;;
62006;SDS011;47963;53.008;6.754;2022-11-15T02:52:25;48.67;;;33.38;;
62006;SDS011;47963;53.008;6.754;2022-11-15T02:54:53;49.22;;;33.85;;
62006;SDS011;47963;53.008;6.754;2022-11-15T02:57:19;48.58;;;32.03;;
62006;SDS011;47963;53.008;6.754;2022-11-15T03:00:10;51.38;;;33.63;;
62006;SDS011;47963;53.008;6.754;2022-11-15T03:08:31;52.85;;;33.72;;
62006;SDS011;47963;53.008;6.754;2022-11-15T03:11:35;58.50;;;35.20;;
62006;SDS011;47963;53.008;6.754;2022-11-15T03:14:09;60.58;;;35.80;;
62006;SDS011;47963;53.008;6.754;2022-11-15T03:16:57;55.45;;;34.08;;
62006;SDS011;47963;53.008;6.754;2022-11-15T03:19:44;65.22;;;36.65;;
62006;SDS011;47963;53.008;6.754;2022-11-15T03:22:16;73.32;;;38.65;;
62006;SDS011;47963;53.008;6.754;2022-11-15T03:24:45;74.05;;;39.75;;
62006;SDS011;47963;53.008;6.754;2022-11-15T03:27:15;65.88;;;38.33;;
62006;SDS011;47963;53.008;6.754;2022-11-15T03:29:50;73.32;;;39.30;;
62006;SDS011;47963;53.008;6.754;2022-11-15T03:32:21;84.40;;;43.17;;
62006;SDS011;47963;53.008;6.754;2022-11-15T03:34:58;83.07;;;41.67;;
62006;SDS011;47963;53.008;6.754;2022-11-15T03:37:33;81.47;;;41.63;;
62006;SDS011;47963;53.008;6.754;2022-11-15T03:40:04;77.20;;;41.00;;
62006;SDS011;47963;53.008;6.754;2022-11-15T03:42:39;88.82;;;44.67;;
62006;SDS011;47963;53.008;6.754;2022-11-15T03:47:49;82.75;;;42.60;;
62006;SDS011;47963;53.008;6.754;2022-11-15T03:50:20;90.57;;;44.38;;
62006;SDS011;47963;53.008;6.754;2022-11-15T03:52:49;87.20;;;44.25;;
62006;SDS011;47963;53.008;6.754;2022-11-15T03:55:17;89.40;;;44.88;;
62006;SDS011;47963;53.008;6.754;2022-11-15T03:57:44;90.65;;;44.70;;
62006;SDS011;47963;53.008;6.754;2022-11-15T04:00:11;86.28;;;44.10;;
62006;SDS011;47963;53.008;6.754;2022-11-15T04:02:37;93.07;;;45.38;;
62006;SDS011;47963;53.008;6.754;2022-11-15T04:05:03;82.65;;;42.60;;
62006;SDS011;47963;53.008;6.754;2022-11-15T04:07:29;89.38;;;46.00;;
62006;SDS011;47963;53.008;6.754;2022-11-15T04:09:54;85.05;;;45.08;;
62006;SDS011;47963;53.008;6.754;2022-11-15T04:12:31;92.40;;;46.63;;
62006;SDS011;47963;53.008;6.754;2022-11-15T04:15:09;104.85;;;47.92;;
62006;SDS011;47963;53.008;6.754;2022-11-15T04:17:40;91.75;;;48.28;;
62006;SDS011;47963;53.008;6.754;2022-11-15T04:20:10;98.68;;;49.47;;
62006;SDS011;47963;53.008;6.754;2022-11-15T04:22:57;104.25;;;50.00;;
62006;SDS011;47963;53.008;6.754;2022-11-15T04:25:42;111.35;;;52.25;;
62006;SDS011;47963;53.008;6.754;2022-11-15T04:28:09;115.05;;;53.85;;
62006;SDS011;47963;53.008;6.754;2022-11-15T04:30:35;122.07;;;54.65;;
62006;SDS011;47963;53.008;6.754;2022-11-15T04:33:01;113.70;;;54.42;;
62006;SDS011;47963;53.008;6.754;2022-11-15T04:35:27;118.35;;;54.67;;
62006;SDS011;47963;53.008;6.754;2022-11-15T04:37:53;117.15;;;54.75;;
62006;SDS011;47963;53.008;6.754;2022-11-15T04:40:19;118.47;;;56.33;;
62006;SDS011;47963;53.008;6.754;2022-11-15T04:42:45;125.80;;;59.05;;
62006;SDS011;47963;53.008;6.754;2022-11-15T04:45:11;122.70;;;57.00;;
62006;SDS011;47963;53.008;6.754;2022-11-15T04:47:36;134.10;;;59.15;;
62006;SDS011;47963;53.008;6.754;2022-11-15T04:50:02;136.30;;;60.03;;
62006;SDS011;47963;53.008;6.754;2022-11-15T04:52:28;134.05;;;61.80;;
62006;SDS011;47963;53.008;6.754;2022-11-15T04:54:54;140.80;;;60.60;;
62006;SDS011;47963;53.008;6.754;2022-11-15T04:57:20;138.43;;;62.72;;
62006;SDS011;47963;53.008;6.754;2022-11-15T04:59:45;142.07;;;62.70;;
62006;SDS011;47963;53.008;6.754;2022-11-15T05:02:11;144.48;;;62.67;;
62006;SDS011;47963;53.008;6.754;2022-11-15T05:04:37;148.63;;;62.97;;
62006;SDS011;47963;53.008;6.754;2022-11-15T05:07:02;156.18;;;66.18;;
62006;SDS011;47963;53.008;6.754;2022-11-15T05:09:31;169.82;;;69.38;;
62006;SDS011;47963;53.008;6.754;2022-11-15T05:11:56;164.63;;;70.10;;
62006;SDS011;47963;53.008;6.754;2022-11-15T05:14:22;172.82;;;68.43;;
62006;SDS011;47963;53.008;6.754;2022-11-15T05:16:48;182.30;;;70.97;;
62006;SDS011;47963;53.008;6.754;2022-11-15T05:19:13;182.52;;;71.45;;
62006;SDS011;47963;53.008;6.754;2022-11-15T05:21:39;202.60;;;75.25;;
62006;SDS011;47963;53.008;6.754;2022-11-15T05:24:05;167.90;;;67.45;;
62006;SDS011;47963;53.008;6.754;2022-11-15T05:26:30;176.52;;;66.55;;
62006;SDS011;47963;53.008;6.754;2022-11-15T05:28:57;159.98;;;64.82;;
62006;SDS011;47963;53.008;6.754;2022-11-15T05:31:24;163.55;;;67.43;;
62006;SDS011;47963;53.008;6.754;2022-11-15T05:33:50;177.32;;;69.43;;
62006;SDS011;47963;53.008;6.754;2022-11-15T05:38:50;195.40;;;74.38;;
62006;SDS011;47963;53.008;6.754;2022-11-15T05:41:20;166.77;;;70.43;;
62006;SDS011;47963;53.008;6.754;2022-11-15T05:43:52;179.95;;;72.63;;
62006;SDS011;47963;53.008;6.754;2022-11-15T05:46:18;198.23;;;76.75;;
62006;SDS011;47963;53.008;6.754;2022-11-15T05:48:45;182.35;;;76.03;;
62006;SDS011;47963;53.008;6.754;2022-11-15T05:51:14;205.98;;;78.35;;
62006;SDS011;47963;53.008;6.754;2022-11-15T05:53:42;197.43;;;76.60;;
62006;SDS011;47963;53.008;6.754;2022-11-15T05:56:09;176.73;;;73.70;;
62006;SDS011;47963;53.008;6.754;2022-11-15T05:58:35;175.48;;;74.50;;
62006;SDS011;47963;53.008;6.754;2022-11-15T06:01:02;174.02;;;74.53;;
62006;SDS011;47963;53.008;6.754;2022-11-15T06:03:28;202.52;;;77.95;;
62006;SDS011;47963;53.008;6.754;2022-11-15T06:05:53;178.00;;;75.60;;
62006;SDS011;47963;53.008;6.754;2022-11-15T06:08:19;182.60;;;77.15;;
62006;SDS011;47963;53.008;6.754;2022-11-15T06:10:45;183.93;;;75.55;;
62006;SDS011;47963;53.008;6.754;2022-11-15T06:13:10;182.90;;;76.57;;
62006;SDS011;47963;53.008;6.754;2022-11-15T06:15:36;184.48;;;77.45;;
62006;SDS011;47963;53.008;6.754;2022-11-15T06:18:02;176.50;;;75.88;;
62006;SDS011;47963;53.008;6.754;2022-11-15T06:20:28;184.95;;;76.93;;
62006;SDS011;47963;53.008;6.754;2022-11-15T06:22:57;190.25;;;73.80;;
62006;SDS011;47963;53.008;6.754;2022-11-15T06:25:24;178.68;;;74.80;;
62006;SDS011;47963;53.008;6.754;2022-11-15T06:27:51;174.13;;;74.93;;
62006;SDS011;47963;53.008;6.754;2022-11-15T06:30:17;176.60;;;74.15;;
62006;SDS011;47963;53.008;6.754;2022-11-15T06:32:43;180.02;;;72.25;;
62006;SDS011;47963;53.008;6.754;2022-11-15T06:35:09;174.00;;;71.50;;
62006;SDS011;47963;53.008;6.754;2022-11-15T06:37:35;160.35;;;72.47;;
62006;SDS011;47963;53.008;6.754;2022-11-15T06:40:00;154.88;;;69.00;;
62006;SDS011;47963;53.008;6.754;2022-11-15T06:42:26;168.07;;;71.10;;
62006;SDS011;47963;53.008;6.754;2022-11-15T06:44:51;172.00;;;71.28;;
62006;SDS011;47963;53.008;6.754;2022-11-15T06:47:17;179.18;;;73.45;;
62006;SDS011;47963;53.008;6.754;2022-11-15T06:49:43;169.02;;;69.95;;
62006;SDS011;47963;53.008;6.754;2022-11-15T06:52:08;171.73;;;69.07;;
62006;SDS011;47963;53.008;6.754;2022-11-15T06:54:34;158.02;;;67.35;;
62006;SDS011;47963;53.008;6.754;2022-11-15T06:57:00;149.52;;;65.38;;
62006;SDS011;47963;53.008;6.754;2022-11-15T06:59:25;159.07;;;66.45;;
62006;SDS011;47963;53.008;6.754;2022-11-15T07:01:51;149.52;;;65.75;;
62006;SDS011;47963;53.008;6.754;2022-11-15T07:04:16;167.55;;;67.55;;
62006;SDS011;47963;53.008;6.754;2022-11-15T07:06:42;159.57;;;65.93;;
62006;SDS011;47963;53.008;6.754;2022-11-15T07:09:10;160.05;;;65.55;;
62006;SDS011;47963;53.008;6.754;2022-11-15T07:11:36;153.68;;;64.72;;
62006;SDS011;47963;53.008;6.754;2022-11-15T07:14:02;149.55;;;63.55;;
62006;SDS011;47963;53.008;6.754;2022-11-15T07:16:27;155.30;;;64.13;;
62006;SDS011;47963;53.008;6.754;2022-11-15T07:18:53;145.38;;;63.35;;
62006;SDS011;47963;53.008;6.754;2022-11-15T07:21:18;142.13;;;60.45;;
62006;SDS011;47963;53.008;6.754;2022-11-15T07:23:44;151.27;;;60.72;;
62006;SDS011;47963;53.008;6.754;2022-11-15T07:26:10;145.60;;;59.92;;
62006;SDS011;47963;53.008;6.754;2022-11-15T07:28:35;143.18;;;59.92;;
62006;SDS011;47963;53.008;6.754;2022-11-15T07:31:05;134.85;;;58.25;;
62006;SDS011;47963;53.008;6.754;2022-11-15T07:33:32;130.30;;;56.60;;
62006;SDS011;47963;53.008;6.754;2022-11-15T07:35:58;127.10;;;56.88;;
62006;SDS011;47963;53.008;6.754;2022-11-15T07:38:28;129.70;;;57.30;;
62006;SDS011;47963;53.008;6.754;2022-11-15T07:40:57;131.80;;;56.60;;
62006;SDS011;47963;53.008;6.754;2022-11-15T07:43:24;122.00;;;53.08;;
62006;SDS011;47963;53.008;6.754;2022-11-15T07:45:52;124.93;;;56.30;;
62006;SDS011;47963;53.008;6.754;2022-11-15T07:48:18;121.60;;;55.33;;
62006;SDS011;47963;53.008;6.754;2022-11-15T07:50:44;120.03;;;55.15;;
62006;SDS011;47963;53.008;6.754;2022-11-15T07:53:10;126.78;;;54.80;;
62006;SDS011;47963;53.008;6.754;2022-11-15T07:55:36;106.45;;;53.58;;
62006;SDS011;47963;53.008;6.754;2022-11-15T07:58:05;123.43;;;54.63;;
62006;SDS011;47963;53.008;6.754;2022-11-15T08:00:33;113.80;;;54.10;;
62006;SDS011;47963;53.008;6.754;2022-11-15T08:03:13;105.45;;;51.70;;
62006;SDS011;47963;53.008;6.754;2022-11-15T08:05:41;106.32;;;52.45;;
62006;SDS011;47963;53.008;6.754;2022-11-15T08:08:08;108.28;;;53.10;;
62006;SDS011;47963;53.008;6.754;2022-11-15T08:10:35;103.82;;;51.70;;
62006;SDS011;47963;53.008;6.754;2022-11-15T08:13:05;107.05;;;53.92;;
62006;SDS011;47963;53.008;6.754;2022-11-15T08:15:33;97.10;;;50.05;;
62006;SDS011;47963;53.008;6.754;2022-11-15T08:18:02;104.22;;;51.58;;
62006;SDS011;47963;53.008;6.754;2022-11-15T08:20:33;107.32;;;52.78;;
62006;SDS011;47963;53.008;6.754;2022-11-15T08:23:02;114.28;;;52.85;;
62006;SDS011;47963;53.008;6.754;2022-11-15T08:25:29;114.10;;;54.80;;
62006;SDS011;47963;53.008;6.754;2022-11-15T08:27:57;116.63;;;55.22;;
62006;SDS011;47963;53.008;6.754;2022-11-15T08:30:24;109.88;;;53.08;;
62006;SDS011;47963;53.008;6.754;2022-11-15T08:32:50;109.07;;;52.50;;
62006;SDS011;47963;53.008;6.754;2022-11-15T08:35:17;97.57;;;50.67;;
62006;SDS011;47963;53.008;6.754;2022-11-15T08:37:44;103.32;;;51.97;;
62006;SDS011;47963;53.008;6.754;2022-11-15T08:40:10;113.32;;;53.42;;
62006;SDS011;47963;53.008;6.754;2022-11-15T08:42:35;104.43;;;53.10;;
62006;SDS011;47963;53.008;6.754;2022-11-15T08:45:01;113.07;;;54.38;;
62006;SDS011;47963;53.008;6.754;2022-11-15T08:47:28;107.18;;;53.65;;
62006;SDS011;47963;53.008;6.754;2022-11-15T08:49:54;104.53;;;51.95;;
62006;SDS011;47963;53.008;6.754;2022-11-15T08:52:20;96.38;;;51.80;;
62006;SDS011;47963;53.008;6.754;2022-11-15T08:54:46;99.35;;;50.35;;
62006;SDS011;47963;53.008;6.754;2022-11-15T08:57:12;96.50;;;50.25;;
62006;SDS011;47963;53.008;6.754;2022-11-15T08:59:37;102.68;;;53.17;;
62006;SDS011;47963;53.008;6.754;2022-11-15T09:02:03;93.30;;;50.65;;
62006;SDS011;47963;53.008;6.754;2022-11-15T09:04:29;101.97;;;52.63;;
62006;SDS011;47963;53.008;6.754;2022-11-15T09:06:55;100.90;;;52.40;;
62006;SDS011;47963;53.008;6.754;2022-11-15T09:09:21;100.47;;;52.10;;
62006;SDS011;47963;53.008;6.754;2022-11-15T09:11:46;101.88;;;53.92;;
62006;SDS011;47963;53.008;6.754;2022-11-15T09:14:13;96.03;;;51.63;;
62006;SDS011;47963;53.008;6.754;2022-11-15T09:16:39;97.95;;;53.60;;
62006;SDS011;47963;53.008;6.754;2022-11-15T09:19:05;104.97;;;53.22;;
62006;SDS011;47963;53.008;6.754;2022-11-15T09:21:31;96.45;;;50.67;;
62006;SDS011;47963;53.008;6.754;2022-11-15T09:23:57;106.25;;;52.50;;
62006;SDS011;47963;53.008;6.754;2022-11-15T09:26:23;92.78;;;50.33;;
62006;SDS011;47963;53.008;6.754;2022-11-15T09:28:48;100.22;;;52.38;;
62006;SDS011;47963;53.008;6.754;2022-11-15T09:31:14;91.40;;;50.15;;
62006;SDS011;47963;53.008;6.754;2022-11-15T09:33:42;98.75;;;51.70;;
62006;SDS011;47963;53.008;6.754;2022-11-15T09:36:09;91.20;;;51.22;;
62006;SDS011;47963;53.008;6.754;2022-11-15T09:38:35;102.13;;;51.67;;
62006;SDS011;47963;53.008;6.754;2022-11-15T09:49:06;99.40;;;52.05;;
62006;SDS011;47963;53.008;6.754;2022-11-15T09:51:36;102.15;;;51.65;;
62006;SDS011;47963;53.008;6.754;2022-11-15T09:56:56;92.25;;;50.60;;
62006;SDS011;47963;53.008;6.754;2022-11-15T09:59:59;91.28;;;50.90;;
62006;SDS011;47963;53.008;6.754;2022-11-15T10:02:43;92.28;;;49.35;;
62006;SDS011;47963;53.008;6.754;2022-11-15T10:05:22;91.93;;;50.28;;
62006;SDS011;47963;53.008;6.754;2022-11-15T10:10:36;110.18;;;52.38;;
62006;SDS011;47963;53.008;6.754;2022-11-15T10:13:12;88.32;;;50.85;;
62006;SDS011;47963;53.008;6.754;2022-11-15T10:15:47;95.75;;;52.80;;
62006;SDS011;47963;53.008;6.754;2022-11-15T10:21:18;93.97;;;52.30;;
62006;SDS011;47963;53.008;6.754;2022-11-15T10:23:48;104.47;;;56.22;;
62006;SDS011;47963;53.008;6.754;2022-11-15T10:26:16;109.03;;;56.72;;
62006;SDS011;47963;53.008;6.754;2022-11-15T10:28:42;104.45;;;55.83;;
62006;SDS011;47963;53.008;6.754;2022-11-15T10:31:21;109.13;;;60.03;;
62006;SDS011;47963;53.008;6.754;2022-11-15T10:33:48;112.40;;;57.45;;
62006;SDS011;47963;53.008;6.754;2022-11-15T10:36:16;116.55;;;58.58;;
62006;SDS011;47963;53.008;6.754;2022-11-15T10:46:32;132.60;;;63.17;;
62006;SDS011;47963;53.008;6.754;2022-11-15T10:49:13;127.47;;;62.55;;
62006;SDS011;47963;53.008;6.754;2022-11-15T10:52:00;124.47;;;61.53;;
62006;SDS011;47963;53.008;6.754;2022-11-15T10:54:30;126.68;;;60.25;;
62006;SDS011;47963;53.008;6.754;2022-11-15T10:57:05;114.25;;;57.88;;
62006;SDS011;47963;53.008;6.754;2022-11-15T10:59:34;115.75;;;57.63;;
62006;SDS011;47963;53.008;6.754;2022-11-15T11:02:02;123.18;;;60.13;;
62006;SDS011;47963;53.008;6.754;2022-11-15T11:04:50;123.95;;;59.45;;
62006;SDS011;47963;53.008;6.754;2022-11-15T11:07:21;123.65;;;59.53;;
62006;SDS011;47963;53.008;6.754;2022-11-15T11:12:38;86.10;;;47.70;;
62006;SDS011;47963;53.008;6.754;2022-11-15T11:15:09;81.80;;;45.75;;
62006;SDS011;47963;53.008;6.754;2022-11-15T11:17:51;75.25;;;43.08;;
62006;SDS011;47963;53.008;6.754;2022-11-15T11:25:50;68.18;;;36.97;;
62006;SDS011;47963;53.008;6.754;2022-11-15T11:37:19;51.40;;;29.98;;
62006;SDS011;47963;53.008;6.754;2022-11-15T11:48:20;44.05;;;26.13;;
62006;SDS011;47963;53.008;6.754;2022-11-15T11:50:59;40.22;;;24.65;;
62006;SDS011;47963;53.008;6.754;2022-11-15T11:53:40;41.70;;;23.15;;
62006;SDS011;47963;53.008;6.754;2022-11-15T11:56:18;32.45;;;19.17;;
62006;SDS011;47963;53.008;6.754;2022-11-15T11:58:54;31.80;;;19.23;;
62006;SDS011;47963;53.008;6.754;2022-11-15T12:01:37;31.92;;;18.77;;
62006;SDS011;47963;53.008;6.754;2022-11-15T12:07:14;30.20;;;17.80;;
62006;SDS011;47963;53.008;6.754;2022-11-15T12:09:53;28.42;;;16.55;;
62006;SDS011;47963;53.008;6.754;2022-11-15T12:12:30;30.15;;;16.45;;
62006;SDS011;47963;53.008;6.754;2022-11-15T12:15:03;28.67;;;16.60;;
62006;SDS011;47963;53.008;6.754;2022-11-15T12:17:38;28.05;;;16.42;;
62006;SDS011;47963;53.008;6.754;2022-11-15T12:20:16;29.38;;;15.88;;
62006;SDS011;47963;53.008;6.754;2022-11-15T12:22:43;28.15;;;16.55;;
62006;SDS011;47963;53.008;6.754;2022-11-15T12:25:31;28.38;;;15.73;;
62006;SDS011;47963;53.008;6.754;2022-11-15T12:28:24;26.58;;;15.18;;
62006;SDS011;47963;53.008;6.754;2022-11-15T12:31:34;31.05;;;15.40;;
62006;SDS011;47963;53.008;6.754;2022-11-15T12:34:34;29.92;;;16.35;;
62006;SDS011;47963;53.008;6.754;2022-11-15T12:42:34;25.98;;;15.15;;
62006;SDS011;47963;53.008;6.754;2022-11-15T12:45:22;29.92;;;15.98;;
62006;SDS011;47963;53.008;6.754;2022-11-15T12:47:56;27.25;;;15.13;;
62006;SDS011;47963;53.008;6.754;2022-11-15T13:06:46;23.77;;;13.25;;
62006;SDS011;47963;53.008;6.754;2022-11-15T13:12:01;23.23;;;12.52;;
62006;SDS011;47963;53.008;6.754;2022-11-15T13:14:38;18.23;;;10.65;;
62006;SDS011;47963;53.008;6.754;2022-11-15T13:17:34;19.60;;;10.05;;
62006;SDS011;47963;53.008;6.754;2022-11-15T13:27:44;17.73;;;9.07;;
62006;SDS011;47963;53.008;6.754;2022-11-15T13:30:16;15.70;;;8.90;;
62006;SDS011;47963;53.008;6.754;2022-11-15T13:32:46;18.55;;;9.02;;
62006;SDS011;47963;53.008;6.754;2022-11-15T13:35:20;17.20;;;9.40;;
62006;SDS011;47963;53.008;6.754;2022-11-15T13:37:47;17.05;;;9.02;;
62006;SDS011;47963;53.008;6.754;2022-11-15T13:42:47;14.95;;;8.73;;
62006;SDS011;47963;53.008;6.754;2022-11-15T13:45:15;17.17;;;8.35;;
62006;SDS011;47963;53.008;6.754;2022-11-15T13:47:42;15.70;;;8.40;;
62006;SDS011;47963;53.008;6.754;2022-11-15T13:50:12;15.93;;;8.15;;
62006;SDS011;47963;53.008;6.754;2022-11-15T13:52:38;14.60;;;7.88;;
62006;SDS011;47963;53.008;6.754;2022-11-15T13:57:42;16.92;;;8.20;;
62006;SDS011;47963;53.008;6.754;2022-11-15T14:02:54;21.40;;;7.95;;
62006;SDS011;47963;53.008;6.754;2022-11-15T14:05:22;15.18;;;7.40;;
62006;SDS011;47963;53.008;6.754;2022-11-15T14:07:56;16.35;;;7.63;;
62006;SDS011;47963;53.008;6.754;2022-11-15T14:10:33;15.30;;;7.47;;
62006;SDS011;47963;53.008;6.754;2022-11-15T14:13:01;14.38;;;7.88;;
62006;SDS011;47963;53.008;6.754;2022-11-15T14:15:32;13.32;;;7.28;;
62006;SDS011;47963;53.008;6.754;2022-11-15T14:17:59;13.93;;;7.07;;
62006;SDS011;47963;53.008;6.754;2022-11-15T14:20:26;13.93;;;7.72;;
62006;SDS011;47963;53.008;6.754;2022-11-15T14:23:05;13.80;;;7.40;;
62006;SDS011;47963;53.008;6.754;2022-11-15T14:25:51;15.15;;;8.00;;
62006;SDS011;47963;53.008;6.754;2022-11-15T14:30:56;15.35;;;7.70;;
62006;SDS011;47963;53.008;6.754;2022-11-15T14:33:25;14.77;;;7.80;;
62006;SDS011;47963;53.008;6.754;2022-11-15T14:36:14;13.77;;;7.53;;
62006;SDS011;47963;53.008;6.754;2022-11-15T14:38:41;14.98;;;7.97;;
62006;SDS011;47963;53.008;6.754;2022-11-15T14:41:17;15.73;;;7.97;;
62006;SDS011;47963;53.008;6.754;2022-11-15T14:43:47;14.57;;;8.10;;
62006;SDS011;47963;53.008;6.754;2022-11-15T14:46:14;15.75;;;8.70;;
62006;SDS011;47963;53.008;6.754;2022-11-15T14:48:39;13.90;;;8.23;;
62006;SDS011;47963;53.008;6.754;2022-11-15T14:51:16;14.30;;;8.05;;
62006;SDS011;47963;53.008;6.754;2022-11-15T14:53:46;18.17;;;8.73;;
62006;SDS011;47963;53.008;6.754;2022-11-15T14:56:12;13.88;;;8.90;;
62006;SDS011;47963;53.008;6.754;2022-11-15T14:58:39;16.60;;;9.15;;
62006;SDS011;47963;53.008;6.754;2022-11-15T15:01:19;14.90;;;9.15;;
62006;SDS011;47963;53.008;6.754;2022-11-15T15:03:50;16.77;;;9.90;;
62006;SDS011;47963;53.008;6.754;2022-11-15T15:06:17;15.43;;;9.75;;
62006;SDS011;47963;53.008;6.754;2022-11-15T15:08:43;16.58;;;10.25;;
62006;SDS011;47963;53.008;6.754;2022-11-15T15:11:13;18.10;;;11.20;;
62006;SDS011;47963;53.008;6.754;2022-11-15T15:13:43;19.55;;;11.10;;
62006;SDS011;47963;53.008;6.754;2022-11-15T15:16:09;19.70;;;11.10;;
62006;SDS011;47963;53.008;6.754;2022-11-15T15:18:34;19.75;;;12.85;;
62006;SDS011;47963;53.008;6.754;2022-11-15T15:21:00;21.17;;;13.38;;
62006;SDS011;47963;53.008;6.754;2022-11-15T15:23:32;21.17;;;13.52;;
62006;SDS011;47963;53.008;6.754;2022-11-15T15:25:58;18.45;;;13.18;;
62006;SDS011;47963;53.008;6.754;2022-11-15T15:28:24;21.42;;;13.52;;
62006;SDS011;47963;53.008;6.754;2022-11-15T15:30:50;21.63;;;14.30;;
62006;SDS011;47963;53.008;6.754;2022-11-15T15:33:16;21.20;;;13.35;;
62006;SDS011;47963;53.008;6.754;2022-11-15T15:35:42;18.70;;;12.77;;
62006;SDS011;47963;53.008;6.754;2022-11-15T15:38:10;17.83;;;11.85;;
62006;SDS011;47963;53.008;6.754;2022-11-15T15:40:36;21.02;;;13.15;;
62006;SDS011;47963;53.008;6.754;2022-11-15T15:43:02;18.60;;;13.07;;
62006;SDS011;47963;53.008;6.754;2022-11-15T15:45:27;20.42;;;14.82;;
62006;SDS011;47963;53.008;6.754;2022-11-15T15:47:54;21.38;;;15.38;;
62006;SDS011;47963;53.008;6.754;2022-11-15T15:52:51;19.75;;;15.20;;
62006;SDS011;47963;53.008;6.754;2022-11-15T15:55:18;18.40;;;14.93;;
62006;SDS011;47963;53.008;6.754;2022-11-15T15:57:44;18.88;;;13.70;;
62006;SDS011;47963;53.008;6.754;2022-11-15T16:00:10;18.35;;;14.15;;
62006;SDS011;47963;53.008;6.754;2022-11-15T16:02:36;19.15;;;15.48;;
62006;SDS011;47963;53.008;6.754;2022-11-15T16:05:01;23.02;;;15.93;;
62006;SDS011;47963;53.008;6.754;2022-11-15T16:07:27;38.55;;;23.00;;
62006;SDS011;47963;53.008;6.754;2022-11-15T16:09:54;39.83;;;25.83;;
62006;SDS011;47963;53.008;6.754;2022-11-15T16:12:29;37.45;;;23.80;;
62006;SDS011;47963;53.008;6.754;2022-11-15T16:14:56;52.90;;;29.15;;
62006;SDS011;47963;53.008;6.754;2022-11-15T16:17:23;26.65;;;18.80;;
62006;SDS011;47963;53.008;6.754;2022-11-15T16:19:51;27.73;;;19.20;;
62006;SDS011;47963;53.008;6.754;2022-11-15T16:22:16;35.92;;;23.70;;
62006;SDS011;47963;53.008;6.754;2022-11-15T16:24:42;31.48;;;23.38;;
62006;SDS011;47963;53.008;6.754;2022-11-15T16:27:14;34.33;;;25.35;;
62006;SDS011;47963;53.008;6.754;2022-11-15T16:29:41;36.70;;;25.83;;
62006;SDS011;47963;53.008;6.754;2022-11-15T16:32:07;34.97;;;26.30;;
62006;SDS011;47963;53.008;6.754;2022-11-15T16:34:33;24.90;;;18.10;;
62006;SDS011;47963;53.008;6.754;2022-11-15T16:36:59;22.27;;;16.67;;
62006;SDS011;47963;53.008;6.754;2022-11-15T16:39:24;22.73;;;17.60;;